sensor_id;sensor_type;location;lat;lon;timestamp;pressure;altitude;pressure_sealevel;temperature;humidity
40708;BME280;26392;42.696;23.350;2023-01-29T00:02:20;95445.84;;;0.26;100.00
40708;BME280;26392;42.696;23.350;2023-01-29T00:04:45;95444.00;;;0.26;100.00
40708;BME280;26392;42.696;23.350;2023-01-29T00:07:11;95448.06;;;0.22;100.00
40708;BME280;26392;42.696;23.350;2023-01-29T00:09:36;95452.97;;;0.18;100.00
40708;BME280;26392;42.696;23.350;2023-01-29T00:12:01;95448.91;;;0.22;100.00
40708;BME280;26392;42.696;23.350;2023-01-29T00:14:27;95457.47;;;0.33;100.00
40708;BME280;26392;42.696;23.350;2023-01-29T00:16:53;95462.38;;;0.29;100.00
40708;BME280;26392;42.696;23.350;2023-01-29T00:19:18;95460.97;;;0.33;100.00
40708;BME280;26392;42.696;23.350;2023-01-29T00:21:44;95469.50;;;0.37;100.00
40708;BME280;26392;42.696;23.350;2023-01-29T00:24:10;95451.44;;;0.31;100.00
40708;BME280;26392;42.696;23.350;2023-01-29T00:26:35;95463.19;;;0.30;100.00
40708;BME280;26392;42.696;23.350;2023-01-29T00:29:03;95456.94;;;0.22;100.00
40708;BME280;26392;42.696;23.350;2023-01-29T00:31:29;95474.19;;;0.35;100.00
40708;BME280;26392;42.696;23.350;2023-01-29T00:33:54;95448.25;;;0.20;100.00
40708;BME280;26392;42.696;23.350;2023-01-29T00:36:20;95471.69;;;0.33;100.00
40708;BME280;26392;42.696;23.350;2023-01-29T00:38:46;95465.59;;;0.39;100.00
40708;BME280;26392;42.696;23.350;2023-01-29T00:41:20;95475.94;;;0.28;100.00
40708;BME280;26392;42.696;23.350;2023-01-29T00:44:05;95472.56;;;0.34;100.00
40708;BME280;26392;42.696;23.350;2023-01-29T00:46:49;95470.59;;;0.42;100.00
40708;BME280;26392;42.696;23.350;2023-01-29T00:49:15;95473.59;;;0.54;100.00
40708;BME280;26392;42.696;23.350;2023-01-29T00:51:41;95462.88;;;0.54;100.00
40708;BME280;26392;42.696;23.350;2023-01-29T00:54:06;95465.59;;;0.39;100.00
40708;BME280;26392;42.696;23.350;2023-01-29T00:56:34;95473.16;;;0.36;100.00
40708;BME280;26392;42.696;23.350;2023-01-29T00:59:00;95458.13;;;0.35;100.00
40708;BME280;26392;42.696;23.350;2023-01-29T01:01:25;95465.94;;;0.36;100.00
40708;BME280;26392;42.696;23.350;2023-01-29T01:04:11;95464.56;;;0.40;100.00
40708;BME280;26392;42.696;23.350;2023-01-29T01:06:40;95463.28;;;0.36;100.00
40708;BME280;26392;42.696;23.350;2023-01-29T01:09:07;95465.78;;;0.38;100.00
40708;BME280;26392;42.696;23.350;2023-01-29T01:11:52;95464.75;;;0.39;100.00
40708;BME280;26392;42.696;23.350;2023-01-29T01:14:18;95448.31;;;0.27;100.00
40708;BME280;26392;42.696;23.350;2023-01-29T01:16:44;95455.38;;;0.28;100.00
40708;BME280;26392;42.696;23.350;2023-01-29T01:19:10;95467.53;;;0.31;100.00
40708;BME280;26392;42.696;23.350;2023-01-29T01:21:37;95450.84;;;0.29;100.00
40708;BME280;26392;42.696;23.350;2023-01-29T01:24:02;95460.53;;;0.30;100.00
40708;BME280;26392;42.696;23.350;2023-01-29T01:26:30;95460.91;;;0.27;100.00
40708;BME280;26392;42.696;23.350;2023-01-29T01:28:56;95456.00;;;0.30;100.00
40708;BME280;26392;42.696;23.350;2023-01-29T01:31:21;95460.25;;;0.25;100.00
40708;BME280;26392;42.696;23.350;2023-01-29T01:33:47;95465.81;;;0.23;100.00
40708;BME280;26392;42.696;23.350;2023-01-29T01:36:12;95458.22;;;0.27;100.00
40708;BME280;26392;42.696;23.350;2023-01-29T01:38:38;95457.28;;;0.19;100.00
40708;BME280;26392;42.696;23.350;2023-01-29T01:41:14;95464.03;;;0.30;100.00
40708;BME280;26392;42.696;23.350;2023-01-29T01:43:55;95464.84;;;0.31;100.00
40708;BME280;26392;42.696;23.350;2023-01-29T01:46:22;95459.88;;;0.28;100.00
40708;BME280;26392;42.696;23.350;2023-01-29T01:49:09;95466.63;;;0.24;100.00
40708;BME280;26392;42.696;23.350;2023-01-29T01:51:39;95473.56;;;0.18;100.00
40708;BME280;26392;42.696;23.350;2023-01-29T01:54:10;95463.75;;;0.25;100.00
40708;BME280;26392;42.696;23.350;2023-01-29T01:56:43;95470.34;;;0.22;100.00
40708;BME280;26392;42.696;23.350;2023-01-29T01:59:13;95473.66;;;0.25;100.00
40708;BME280;26392;42.696;23.350;2023-01-29T02:01:42;95484.75;;;0.21;100.00
40708;BME280;26392;42.696;23.350;2023-01-29T02:04:21;95485.13;;;0.18;100.00
40708;BME280;26392;42.696;23.350;2023-01-29T02:07:09;95481.31;;;0.28;100.00
40708;BME280;26392;42.696;23.350;2023-01-29T02:10:07;95487.03;;;0.25;100.00
40708;BME280;26392;42.696;23.350;2023-01-29T02:12:35;95472.28;;;0.29;100.00
40708;BME280;26392;42.696;23.350;2023-01-29T02:15:01;95477.25;;;0.32;100.00
40708;BME280;26392;42.696;23.350;2023-01-29T02:17:27;95477.16;;;0.40;100.00
40708;BME280;26392;42.696;23.350;2023-01-29T02:23:15;95473.44;;;0.41;100.00
40708;BME280;26392;42.696;23.350;2023-01-29T02:28:21;95475.47;;;0.39;100.00
40708;BME280;26392;42.696;23.350;2023-01-29T02:31:06;95482.41;;;0.33;100.00
40708;BME280;26392;42.696;23.350;2023-01-29T02:37:04;95494.34;;;0.31;100.00
40708;BME280;26392;42.696;23.350;2023-01-29T02:39:52;95490.06;;;0.36;100.00
40708;BME280;26392;42.696;23.350;2023-01-29T02:42:27;95492.31;;;0.33;100.00
40708;BME280;26392;42.696;23.350;2023-01-29T02:47:35;95498.22;;;0.43;100.00
40708;BME280;26392;42.696;23.350;2023-01-29T02:52:39;95496.53;;;0.42;100.00
40708;BME280;26392;42.696;23.350;2023-01-29T02:55:12;95495.91;;;0.40;100.00
40708;BME280;26392;42.696;23.350;2023-01-29T02:57:43;95489.97;;;0.44;100.00
40708;BME280;26392;42.696;23.350;2023-01-29T03:00:20;95493.50;;;0.45;100.00
40708;BME280;26392;42.696;23.350;2023-01-29T03:02:57;95496.81;;;0.47;100.00
40708;BME280;26392;42.696;23.350;2023-01-29T03:05:39;95482.63;;;0.32;100.00
40708;BME280;26392;42.696;23.350;2023-01-29T03:08:10;95496.28;;;0.37;100.00
40708;BME280;26392;42.696;23.350;2023-01-29T03:10:47;95494.44;;;0.37;100.00
40708;BME280;26392;42.696;23.350;2023-01-29T03:13:23;95499.81;;;0.37;100.00
40708;BME280;26392;42.696;23.350;2023-01-29T03:15:58;95494.81;;;0.34;100.00
40708;BME280;26392;42.696;23.350;2023-01-29T03:18:31;95496.56;;;0.27;100.00
40708;BME280;26392;42.696;23.350;2023-01-29T03:21:03;95504.72;;;0.34;100.00
40708;BME280;26392;42.696;23.350;2023-01-29T03:23:53;95502.28;;;0.39;100.00
40708;BME280;26392;42.696;23.350;2023-01-29T03:26:38;95502.66;;;0.36;100.00
40708;BME280;26392;42.696;23.350;2023-01-29T03:29:24;95503.31;;;0.38;100.00
40708;BME280;26392;42.696;23.350;2023-01-29T03:32:09;95514.03;;;0.38;100.00
40708;BME280;26392;42.696;23.350;2023-01-29T03:34:48;95511.34;;;0.38;100.00
40708;BME280;26392;42.696;23.350;2023-01-29T03:39:43;95512.44;;;0.43;100.00
40708;BME280;26392;42.696;23.350;2023-01-29T03:50:57;95507.25;;;0.42;100.00
40708;BME280;26392;42.696;23.350;2023-01-29T03:53:42;95505.13;;;0.52;100.00
40708;BME280;26392;42.696;23.350;2023-01-29T03:56:35;95499.97;;;0.51;100.00
40708;BME280;26392;42.696;23.350;2023-01-29T04:06:33;95509.47;;;0.53;100.00
40708;BME280;26392;42.696;23.350;2023-01-29T04:09:08;95507.09;;;0.43;100.00
40708;BME280;26392;42.696;23.350;2023-01-29T04:11:38;95508.56;;;0.46;100.00
40708;BME280;26392;42.696;23.350;2023-01-29T04:14:07;95515.50;;;0.40;100.00
40708;BME280;26392;42.696;23.350;2023-01-29T04:16:40;95506.38;;;0.35;100.00
40708;BME280;26392;42.696;23.350;2023-01-29T04:19:07;95512.75;;;0.34;100.00
40708;BME280;26392;42.696;23.350;2023-01-29T04:21:33;95518.13;;;0.34;100.00
40708;BME280;26392;42.696;23.350;2023-01-29T04:24:02;95512.84;;;0.26;100.00
40708;BME280;26392;42.696;23.350;2023-01-29T04:29:14;95513.09;;;0.31;100.00
40708;BME280;26392;42.696;23.350;2023-01-29T04:32:12;95527.34;;;0.31;100.00
40708;BME280;26392;42.696;23.350;2023-01-29T04:39:51;95519.00;;;0.41;100.00
40708;BME280;26392;42.696;23.350;2023-01-29T04:42:30;95522.63;;;0.48;100.00
40708;BME280;26392;42.696;23.350;2023-01-29T04:45:31;95510.97;;;0.41;100.00
40708;BME280;26392;42.696;23.350;2023-01-29T04:50:39;95524.00;;;0.44;100.00
40708;BME280;26392;42.696;23.350;2023-01-29T04:55:46;95529.09;;;0.39;100.00
40708;BME280;26392;42.696;23.350;2023-01-29T04:58:31;95527.25;;;0.39;100.00
40708;BME280;26392;42.696;23.350;2023-01-29T05:00:58;95531.22;;;0.43;100.00
40708;BME280;26392;42.696;23.350;2023-01-29T05:03:25;95517.81;;;0.43;100.00
40708;BME280;26392;42.696;23.350;2023-01-29T05:05:54;95527.59;;;0.51;100.00
40708;BME280;26392;42.696;23.350;2023-01-29T05:08:22;95536.53;;;0.58;100.00
40708;BME280;26392;42.696;23.350;2023-01-29T05:10:49;95533.69;;;0.60;100.00
40708;BME280;26392;42.696;23.350;2023-01-29T05:13:18;95536.66;;;0.50;100.00
40708;BME280;26392;42.696;23.350;2023-01-29T05:15:51;95532.13;;;0.51;100.00
40708;BME280;26392;42.696;23.350;2023-01-29T05:18:19;95539.31;;;0.50;100.00
40708;BME280;26392;42.696;23.350;2023-01-29T05:20:45;95536.09;;;0.55;100.00
40708;BME280;26392;42.696;23.350;2023-01-29T05:23:19;95543.69;;;0.51;100.00
40708;BME280;26392;42.696;23.350;2023-01-29T05:25:46;95539.09;;;0.45;100.00
40708;BME280;26392;42.696;23.350;2023-01-29T05:28:11;95549.44;;;0.48;100.00
40708;BME280;26392;42.696;23.350;2023-01-29T05:30:45;95543.22;;;0.48;100.00
40708;BME280;26392;42.696;23.350;2023-01-29T05:33:25;95546.91;;;0.47;100.00
40708;BME280;26392;42.696;23.350;2023-01-29T05:35:51;95546.47;;;0.43;100.00
40708;BME280;26392;42.696;23.350;2023-01-29T05:38:17;95555.97;;;0.60;100.00
40708;BME280;26392;42.696;23.350;2023-01-29T05:40:43;95554.88;;;0.55;100.00
40708;BME280;26392;42.696;23.350;2023-01-29T05:45:39;95554.59;;;0.64;100.00
40708;BME280;26392;42.696;23.350;2023-01-29T05:48:04;95552.72;;;0.65;100.00
40708;BME280;26392;42.696;23.350;2023-01-29T05:50:30;95556.50;;;0.56;100.00
40708;BME280;26392;42.696;23.350;2023-01-29T05:52:59;95553.66;;;0.57;100.00
40708;BME280;26392;42.696;23.350;2023-01-29T05:55:26;95568.91;;;0.57;100.00
40708;BME280;26392;42.696;23.350;2023-01-29T05:57:51;95568.28;;;0.55;100.00
40708;BME280;26392;42.696;23.350;2023-01-29T06:00:17;95568.72;;;0.58;100.00
40708;BME280;26392;42.696;23.350;2023-01-29T06:02:43;95573.47;;;0.56;100.00
40708;BME280;26392;42.696;23.350;2023-01-29T06:05:08;95569.31;;;0.54;100.00
40708;BME280;26392;42.696;23.350;2023-01-29T06:07:34;95576.97;;;0.57;100.00
40708;BME280;26392;42.696;23.350;2023-01-29T06:10:00;95582.34;;;0.57;100.00
40708;BME280;26392;42.696;23.350;2023-01-29T06:12:26;95582.59;;;0.62;100.00
40708;BME280;26392;42.696;23.350;2023-01-29T06:14:51;95582.72;;;0.54;100.00
40708;BME280;26392;42.696;23.350;2023-01-29T06:17:17;95585.38;;;0.54;100.00
40708;BME280;26392;42.696;23.350;2023-01-29T06:19:42;95593.72;;;0.59;100.00
40708;BME280;26392;42.696;23.350;2023-01-29T06:22:07;95582.50;;;0.55;100.00
40708;BME280;26392;42.696;23.350;2023-01-29T06:24:33;95596.47;;;0.51;100.00
40708;BME280;26392;42.696;23.350;2023-01-29T06:26:58;95598.31;;;0.50;100.00
40708;BME280;26392;42.696;23.350;2023-01-29T06:29:24;95601.09;;;0.57;100.00
40708;BME280;26392;42.696;23.350;2023-01-29T06:31:49;95602.19;;;0.62;100.00
40708;BME280;26392;42.696;23.350;2023-01-29T06:34:15;95604.13;;;0.69;100.00
40708;BME280;26392;42.696;23.350;2023-01-29T06:36:40;95611.72;;;0.65;100.00
40708;BME280;26392;42.696;23.350;2023-01-29T06:39:06;95607.19;;;0.65;100.00
40708;BME280;26392;42.696;23.350;2023-01-29T06:41:31;95590.28;;;0.65;100.00
40708;BME280;26392;42.696;23.350;2023-01-29T06:43:57;95610.06;;;0.79;100.00
40708;BME280;26392;42.696;23.350;2023-01-29T06:46:22;95620.69;;;0.87;100.00
40708;BME280;26392;42.696;23.350;2023-01-29T06:48:47;95625.66;;;0.90;100.00
40708;BME280;26392;42.696;23.350;2023-01-29T06:51:13;95625.56;;;0.98;100.00
40708;BME280;26392;42.696;23.350;2023-01-29T06:53:39;95611.94;;;1.00;100.00
40708;BME280;26392;42.696;23.350;2023-01-29T06:56:05;95626.34;;;1.14;100.00
40708;BME280;26392;42.696;23.350;2023-01-29T06:58:31;95628.66;;;1.17;100.00
40708;BME280;26392;42.696;23.350;2023-01-29T07:01:10;95627.75;;;1.09;100.00
40708;BME280;26392;42.696;23.350;2023-01-29T07:03:36;95624.88;;;1.11;100.00
40708;BME280;26392;42.696;23.350;2023-01-29T07:06:01;95619.16;;;0.99;100.00
40708;BME280;26392;42.696;23.350;2023-01-29T07:08:27;95635.59;;;1.11;100.00
40708;BME280;26392;42.696;23.350;2023-01-29T07:10:57;95630.06;;;1.13;100.00
40708;BME280;26392;42.696;23.350;2023-01-29T07:13:22;95639.38;;;1.17;100.00
40708;BME280;26392;42.696;23.350;2023-01-29T07:15:48;95645.13;;;1.14;100.00
40708;BME280;26392;42.696;23.350;2023-01-29T07:18:13;95651.63;;;1.04;100.00
40708;BME280;26392;42.696;23.350;2023-01-29T07:20:39;95643.38;;;1.06;100.00
40708;BME280;26392;42.696;23.350;2023-01-29T07:23:05;95642.28;;;1.15;100.00
40708;BME280;26392;42.696;23.350;2023-01-29T07:25:33;95645.31;;;1.12;100.00
40708;BME280;26392;42.696;23.350;2023-01-29T07:28:02;95652.53;;;1.11;100.00
40708;BME280;26392;42.696;23.350;2023-01-29T07:30:28;95655.13;;;1.20;100.00
40708;BME280;26392;42.696;23.350;2023-01-29T07:32:54;95657.19;;;1.39;100.00
40708;BME280;26392;42.696;23.350;2023-01-29T07:35:20;95654.41;;;1.47;100.00
40708;BME280;26392;42.696;23.350;2023-01-29T07:37:49;95654.28;;;1.55;100.00
40708;BME280;26392;42.696;23.350;2023-01-29T07:40:14;95650.94;;;1.53;100.00
40708;BME280;26392;42.696;23.350;2023-01-29T07:42:40;95650.69;;;1.48;100.00
40708;BME280;26392;42.696;23.350;2023-01-29T07:45:09;95655.44;;;1.46;100.00
40708;BME280;26392;42.696;23.350;2023-01-29T07:47:35;95654.13;;;1.42;100.00
40708;BME280;26392;42.696;23.350;2023-01-29T07:50:00;95650.81;;;1.40;100.00
40708;BME280;26392;42.696;23.350;2023-01-29T07:52:28;95661.09;;;1.37;100.00
40708;BME280;26392;42.696;23.350;2023-01-29T07:54:54;95656.31;;;1.32;100.00
40708;BME280;26392;42.696;23.350;2023-01-29T07:57:19;95663.25;;;1.26;100.00
40708;BME280;26392;42.696;23.350;2023-01-29T07:59:45;95674.56;;;1.22;100.00
40708;BME280;26392;42.696;23.350;2023-01-29T08:02:11;95664.09;;;1.27;100.00
40708;BME280;26392;42.696;23.350;2023-01-29T08:04:36;95665.28;;;1.24;100.00
40708;BME280;26392;42.696;23.350;2023-01-29T08:07:01;95669.75;;;1.17;100.00
40708;BME280;26392;42.696;23.350;2023-01-29T08:09:29;95671.59;;;1.17;100.00
40708;BME280;26392;42.696;23.350;2023-01-29T08:11:55;95674.72;;;1.20;100.00
40708;BME280;26392;42.696;23.350;2023-01-29T08:14:21;95662.91;;;1.15;100.00
40708;BME280;26392;42.696;23.350;2023-01-29T08:16:47;95673.34;;;1.24;100.00
40708;BME280;26392;42.696;23.350;2023-01-29T08:19:12;95671.56;;;1.31;100.00
40708;BME280;26392;42.696;23.350;2023-01-29T08:21:37;95665.06;;;1.41;100.00
40708;BME280;26392;42.696;23.350;2023-01-29T08:24:03;95673.03;;;1.49;100.00
40708;BME280;26392;42.696;23.350;2023-01-29T08:26:29;95670.44;;;1.62;100.00
40708;BME280;26392;42.696;23.350;2023-01-29T08:28:54;95670.00;;;1.59;100.00
40708;BME280;26392;42.696;23.350;2023-01-29T08:31:20;95685.69;;;1.55;100.00
40708;BME280;26392;42.696;23.350;2023-01-29T08:33:45;95683.50;;;1.65;100.00
40708;BME280;26392;42.696;23.350;2023-01-29T08:36:11;95693.63;;;1.63;100.00
40708;BME280;26392;42.696;23.350;2023-01-29T08:38:36;95674.72;;;1.56;100.00
40708;BME280;26392;42.696;23.350;2023-01-29T08:41:02;95693.25;;;1.66;100.00
40708;BME280;26392;42.696;23.350;2023-01-29T08:43:27;95685.06;;;1.74;100.00
40708;BME280;26392;42.696;23.350;2023-01-29T08:45:53;95694.00;;;1.82;100.00
40708;BME280;26392;42.696;23.350;2023-01-29T08:48:18;95697.38;;;1.90;100.00
40708;BME280;26392;42.696;23.350;2023-01-29T08:50:44;95696.56;;;1.90;100.00
40708;BME280;26392;42.696;23.350;2023-01-29T08:53:09;95704.72;;;1.96;100.00
40708;BME280;26392;42.696;23.350;2023-01-29T08:55:36;95700.47;;;2.09;100.00
40708;BME280;26392;42.696;23.350;2023-01-29T08:58:03;95707.84;;;2.21;100.00
40708;BME280;26392;42.696;23.350;2023-01-29T09:00:30;95706.59;;;2.24;100.00
40708;BME280;26392;42.696;23.350;2023-01-29T09:02:56;95708.84;;;2.20;100.00
40708;BME280;26392;42.696;23.350;2023-01-29T09:05:24;95707.59;;;2.16;100.00
40708;BME280;26392;42.696;23.350;2023-01-29T09:07:50;95714.94;;;2.08;100.00
40708;BME280;26392;42.696;23.350;2023-01-29T09:10:15;95706.03;;;2.07;100.00
40708;BME280;26392;42.696;23.350;2023-01-29T09:12:41;95710.84;;;2.12;100.00
40708;BME280;26392;42.696;23.350;2023-01-29T09:15:07;95696.69;;;2.03;100.00
40708;BME280;26392;42.696;23.350;2023-01-29T09:17:32;95701.44;;;2.01;100.00
40708;BME280;26392;42.696;23.350;2023-01-29T09:19:58;95705.72;;;2.17;100.00
40708;BME280;26392;42.696;23.350;2023-01-29T09:22:24;95707.50;;;2.31;100.00
40708;BME280;26392;42.696;23.350;2023-01-29T09:24:49;95716.75;;;2.50;100.00
40708;BME280;26392;42.696;23.350;2023-01-29T09:27:14;95699.81;;;2.56;100.00
40708;BME280;26392;42.696;23.350;2023-01-29T09:29:40;95707.66;;;2.51;100.00
40708;BME280;26392;42.696;23.350;2023-01-29T09:32:05;95702.22;;;2.44;100.00
40708;BME280;26392;42.696;23.350;2023-01-29T09:34:31;95697.63;;;2.38;100.00
40708;BME280;26392;42.696;23.350;2023-01-29T09:36:57;95691.88;;;2.41;100.00
40708;BME280;26392;42.696;23.350;2023-01-29T09:39:22;95693.88;;;2.33;100.00
40708;BME280;26392;42.696;23.350;2023-01-29T09:45:02;95700.66;;;2.07;100.00
40708;BME280;26392;42.696;23.350;2023-01-29T09:47:31;95670.09;;;1.87;100.00
40708;BME280;26392;42.696;23.350;2023-01-29T09:50:02;95698.69;;;1.94;100.00
40708;BME280;26392;42.696;23.350;2023-01-29T09:52:40;95687.41;;;2.06;100.00
40708;BME280;26392;42.696;23.350;2023-01-29T09:55:23;95692.66;;;2.14;100.00
40708;BME280;26392;42.696;23.350;2023-01-29T09:57:54;95680.56;;;2.03;100.00
40708;BME280;26392;42.696;23.350;2023-01-29T10:00:47;95693.56;;;1.99;100.00
40708;BME280;26392;42.696;23.350;2023-01-29T10:22:45;95670.81;;;1.74;100.00
40708;BME280;26392;42.696;23.350;2023-01-29T10:25:19;95672.44;;;1.75;100.00
40708;BME280;26392;42.696;23.350;2023-01-29T10:27:57;95663.03;;;1.64;100.00
40708;BME280;26392;42.696;23.350;2023-01-29T10:30:39;95667.25;;;1.73;100.00
40708;BME280;26392;42.696;23.350;2023-01-29T10:33:11;95666.75;;;1.63;100.00
40708;BME280;26392;42.696;23.350;2023-01-29T10:35:43;95647.75;;;1.65;100.00
40708;BME280;26392;42.696;23.350;2023-01-29T10:43:35;95658.56;;;1.93;100.00
40708;BME280;26392;42.696;23.350;2023-01-29T10:47:06;95663.31;;;1.91;100.00
40708;BME280;26392;42.696;23.350;2023-01-29T11:00:24;95645.25;;;1.85;100.00
40708;BME280;26392;42.696;23.350;2023-01-29T11:02:51;95638.34;;;1.75;100.00
40708;BME280;26392;42.696;23.350;2023-01-29T11:05:26;95645.03;;;1.79;100.00
40708;BME280;26392;42.696;23.350;2023-01-29T11:08:12;95636.50;;;1.76;100.00
40708;BME280;26392;42.696;23.350;2023-01-29T11:10:46;95634.38;;;1.93;100.00
40708;BME280;26392;42.696;23.350;2023-01-29T11:13:16;95635.25;;;2.21;100.00
40708;BME280;26392;42.696;23.350;2023-01-29T11:15:42;95634.50;;;2.34;100.00
40708;BME280;26392;42.696;23.350;2023-01-29T11:18:09;95630.84;;;2.14;100.00
40708;BME280;26392;42.696;23.350;2023-01-29T11:20:39;95636.13;;;2.29;100.00
40708;BME280;26392;42.696;23.350;2023-01-29T11:23:25;95617.72;;;2.32;100.00
40708;BME280;26392;42.696;23.350;2023-01-29T11:25:53;95617.78;;;2.39;100.00
40708;BME280;26392;42.696;23.350;2023-01-29T11:31:14;95625.94;;;2.24;100.00
40708;BME280;26392;42.696;23.350;2023-01-29T11:33:40;95627.19;;;2.21;100.00
40708;BME280;26392;42.696;23.350;2023-01-29T11:36:30;95606.59;;;2.35;100.00
40708;BME280;26392;42.696;23.350;2023-01-29T11:39:14;95604.19;;;2.47;100.00
40708;BME280;26392;42.696;23.350;2023-01-29T11:44:25;95598.75;;;2.40;100.00
40708;BME280;26392;42.696;23.350;2023-01-29T11:46:51;95597.50;;;2.36;100.00
40708;BME280;26392;42.696;23.350;2023-01-29T11:49:25;95597.28;;;2.38;100.00
40708;BME280;26392;42.696;23.350;2023-01-29T11:51:54;95605.06;;;2.26;100.00
40708;BME280;26392;42.696;23.350;2023-01-29T11:54:25;95598.63;;;2.20;100.00
40708;BME280;26392;42.696;23.350;2023-01-29T11:56:52;95592.44;;;2.27;100.00
40708;BME280;26392;42.696;23.350;2023-01-29T12:04:37;95590.19;;;2.58;100.00
40708;BME280;26392;42.696;23.350;2023-01-29T12:07:11;95594.78;;;2.71;100.00
40708;BME280;26392;42.696;23.350;2023-01-29T12:09:37;95586.53;;;2.79;100.00
40708;BME280;26392;42.696;23.350;2023-01-29T12:12:25;95582.03;;;2.86;100.00
40708;BME280;26392;42.696;23.350;2023-01-29T12:15:15;95586.22;;;3.02;100.00
40708;BME280;26392;42.696;23.350;2023-01-29T12:17:46;95581.22;;;2.86;100.00
40708;BME280;26392;42.696;23.350;2023-01-29T12:20:18;95589.44;;;2.78;100.00
40708;BME280;26392;42.696;23.350;2023-01-29T12:22:55;95582.44;;;2.83;100.00
40708;BME280;26392;42.696;23.350;2023-01-29T12:28:18;95580.53;;;2.77;100.00
40708;BME280;26392;42.696;23.350;2023-01-29T12:30:53;95590.69;;;2.75;100.00
40708;BME280;26392;42.696;23.350;2023-01-29T12:33:45;95598.13;;;2.80;100.00
40708;BME280;26392;42.696;23.350;2023-01-29T12:39:10;95594.91;;;2.98;100.00
40708;BME280;26392;42.696;23.350;2023-01-29T12:41:43;95590.53;;;2.90;100.00
40708;BME280;26392;42.696;23.350;2023-01-29T12:44:24;95592.91;;;2.65;100.00
40708;BME280;26392;42.696;23.350;2023-01-29T12:46:55;95592.72;;;2.66;100.00
40708;BME280;26392;42.696;23.350;2023-01-29T12:49:26;95586.59;;;2.86;100.00
40708;BME280;26392;42.696;23.350;2023-01-29T12:52:00;95592.41;;;2.96;100.00
40708;BME280;26392;42.696;23.350;2023-01-29T12:54:31;95588.75;;;3.10;100.00
40708;BME280;26392;42.696;23.350;2023-01-29T12:57:01;95588.72;;;2.97;100.00
40708;BME280;26392;42.696;23.350;2023-01-29T12:59:50;95589.47;;;2.84;100.00
40708;BME280;26392;42.696;23.350;2023-01-29T13:02:47;95586.75;;;2.78;100.00
40708;BME280;26392;42.696;23.350;2023-01-29T13:05:16;95593.19;;;2.83;100.00
40708;BME280;26392;42.696;23.350;2023-01-29T13:07:46;95589.34;;;2.58;100.00
40708;BME280;26392;42.696;23.350;2023-01-29T13:10:17;95578.13;;;2.47;100.00
40708;BME280;26392;42.696;23.350;2023-01-29T13:12:53;95576.63;;;2.38;100.00
40708;BME280;26392;42.696;23.350;2023-01-29T13:15:27;95576.63;;;2.38;100.00
40708;BME280;26392;42.696;23.350;2023-01-29T13:18:13;95585.13;;;2.42;100.00
40708;BME280;26392;42.696;23.350;2023-01-29T13:20:42;95582.59;;;2.40;100.00
40708;BME280;26392;42.696;23.350;2023-01-29T13:23:21;95583.59;;;2.67;100.00
40708;BME280;26392;42.696;23.350;2023-01-29T13:25:51;95591.00;;;2.59;100.00
40708;BME280;26392;42.696;23.350;2023-01-29T13:28:19;95593.69;;;2.59;100.00
40708;BME280;26392;42.696;23.350;2023-01-29T13:30:45;95586.31;;;2.74;100.00
40708;BME280;26392;42.696;23.350;2023-01-29T13:33:22;95583.00;;;2.72;100.00
40708;BME280;26392;42.696;23.350;2023-01-29T13:35:57;95592.91;;;2.65;100.00
40708;BME280;26392;42.696;23.350;2023-01-29T13:38:29;95597.59;;;2.56;100.00
40708;BME280;26392;42.696;23.350;2023-01-29T13:41:00;95601.75;;;2.52;100.00
40708;BME280;26392;42.696;23.350;2023-01-29T13:43:33;95606.50;;;2.57;100.00
40708;BME280;26392;42.696;23.350;2023-01-29T13:46:07;95614.66;;;2.70;100.00
40708;BME280;26392;42.696;23.350;2023-01-29T13:48:40;95605.53;;;2.64;100.00
40708;BME280;26392;42.696;23.350;2023-01-29T13:51:10;95603.66;;;2.30;100.00
40708;BME280;26392;42.696;23.350;2023-01-29T13:54:08;95617.56;;;2.12;100.00
40708;BME280;26392;42.696;23.350;2023-01-29T13:56:56;95612.56;;;2.03;100.00
40708;BME280;26392;42.696;23.350;2023-01-29T13:59:49;95612.69;;;1.94;100.00
40708;BME280;26392;42.696;23.350;2023-01-29T14:02:24;95626.69;;;1.90;100.00
40708;BME280;26392;42.696;23.350;2023-01-29T14:04:50;95611.06;;;1.72;100.00
40708;BME280;26392;42.696;23.350;2023-01-29T14:07:38;95616.09;;;1.82;100.00
40708;BME280;26392;42.696;23.350;2023-01-29T14:10:19;95617.78;;;1.83;100.00
40708;BME280;26392;42.696;23.350;2023-01-29T14:12:46;95609.25;;;1.79;100.00
40708;BME280;26392;42.696;23.350;2023-01-29T14:15:27;95625.56;;;1.77;100.00
40708;BME280;26392;42.696;23.350;2023-01-29T14:18:11;95620.38;;;1.76;100.00
40708;BME280;26392;42.696;23.350;2023-01-29T14:21:00;95622.63;;;1.72;100.00
40708;BME280;26392;42.696;23.350;2023-01-29T14:34:27;95645.72;;;1.88;100.00
40708;BME280;26392;42.696;23.350;2023-01-29T14:36:56;95637.53;;;1.75;100.00
40708;BME280;26392;42.696;23.350;2023-01-29T14:39:37;95655.69;;;1.73;100.00
40708;BME280;26392;42.696;23.350;2023-01-29T14:42:31;95646.22;;;1.77;100.00
40708;BME280;26392;42.696;23.350;2023-01-29T14:45:09;95649.19;;;1.82;100.00
40708;BME280;26392;42.696;23.350;2023-01-29T14:58:41;95625.41;;;1.43;100.00
40708;BME280;26392;42.696;23.350;2023-01-29T15:04:22;95647.94;;;1.42;100.00
40708;BME280;26392;42.696;23.350;2023-01-29T15:06:55;95650.44;;;1.43;100.00
40708;BME280;26392;42.696;23.350;2023-01-29T15:09:45;95648.75;;;1.42;100.00
40708;BME280;26392;42.696;23.350;2023-01-29T15:12:42;95651.66;;;1.41;100.00
40708;BME280;26392;42.696;23.350;2023-01-29T15:15:20;95652.84;;;1.38;100.00
40708;BME280;26392;42.696;23.350;2023-01-29T15:17:56;95659.81;;;1.32;100.00
40708;BME280;26392;42.696;23.350;2023-01-29T15:20:35;95646.31;;;1.26;100.00
40708;BME280;26392;42.696;23.350;2023-01-29T15:23:01;95658.34;;;1.30;100.00